Time;durP1;ratioP1;P1;durP2;ratioP2;P2;SDS_P1;SDS_P2;PMS_P1;PMS_P2;Temp;Humidity;BMP_temperature;BMP_pressure;BME280_temperature;BME280_humidity;BME280_pressure;Samples;Min_cycle;Max_cycle;Signal;HPM_P1;HPM_P2
2022/06/29 00:01:44;;;;;;;4.18;3.30;;;;;;;19.24;100.00;96154.53;5051094;28;20202;-70
2022/06/29 00:04:10;;;;;;;9.60;3.60;;;;;;;19.18;100.00;96142.09;5049807;28;20205;-70
2022/06/29 00:06:37;;;;;;;5.18;3.67;;;;;;;19.15;100.00;96139.88;5051181;28;20208;-70
2022/06/29 00:09:04;;;;;;;5.00;3.45;;;;;;;19.21;100.00;96136.28;5051079;28;20221;-69
2022/06/29 00:11:30;;;;;;;6.95;3.60;;;;;;;19.12;100.00;96132.34;5051078;28;20296;-70
2022/06/29 00:13:58;;;;;;;4.80;3.67;;;;;;;19.30;100.00;96134.91;5050687;28;20201;-70
2022/06/29 00:16:25;;;;;;;5.22;3.50;;;;;;;19.16;100.00;96136.19;5051372;28;20208;-70
2022/06/29 00:18:51;;;;;;;5.70;3.67;;;;;;;19.18;100.00;96131.41;5050455;28;20217;-70
2022/06/29 00:21:18;;;;;;;7.10;3.67;;;;;;;18.84;100.00;96129.50;5050979;28;20233;-69
2022/06/29 00:23:45;;;;;;;5.85;3.50;;;;;;;18.99;100.00;96133.34;5050505;28;20201;-69
2022/06/29 00:26:11;;;;;;;4.80;3.40;;;;;;;19.26;100.00;96139.88;5050744;28;20201;-69
2022/06/29 00:28:38;;;;;;;7.40;3.70;;;;;;;19.31;100.00;96132.00;5050655;28;20224;-69
2022/06/29 00:31:06;;;;;;;4.75;3.58;;;;;;;19.41;100.00;96131.41;5050330;28;20204;-69
2022/06/29 00:33:32;;;;;;;4.68;3.90;;;;;;;19.26;100.00;96139.09;5050002;28;20204;-70
2022/06/29 00:35:59;;;;;;;5.57;3.90;;;;;;;19.22;100.00;96135.22;5050658;28;20198;-69
2022/06/29 00:38:25;;;;;;;5.70;3.83;;;;;;;19.34;100.00;96125.38;5050427;28;20240;-69
2022/06/29 00:40:51;;;;;;;6.38;4.05;;;;;;;19.35;100.00;96119.78;5050373;28;20204;-70
2022/06/29 00:43:18;;;;;;;7.97;4.10;;;;;;;19.42;100.00;96114.31;5050115;28;20193;-69
2022/06/29 00:45:44;;;;;;;8.07;4.20;;;;;;;19.49;100.00;96115.00;5050330;28;20205;-69
2022/06/29 00:48:12;;;;;;;5.78;4.00;;;;;;;19.47;100.00;96114.44;5050109;28;20225;-69
2022/06/29 00:50:42;;;;;;;6.50;4.13;;;;;;;19.63;100.00;96115.31;5050049;28;20819;-70
2022/06/29 00:53:14;;;;;;;5.93;4.03;;;;;;;19.74;100.00;96114.50;5050129;28;20197;-69
2022/06/29 00:55:43;;;;;;;4.80;3.90;;;;;;;19.64;100.00;96106.25;5050075;28;20209;-70
2022/06/29 00:58:11;;;;;;;7.40;4.35;;;;;;;19.68;100.00;96115.44;5049527;28;20217;-70
2022/06/29 01:00:38;;;;;;;6.00;4.25;;;;;;;19.54;100.00;96117.78;5050032;28;20201;-69
2022/06/29 01:03:04;;;;;;;5.68;4.18;;;;;;;19.31;100.00;96104.44;5049911;28;20201;-70
2022/06/29 01:05:32;;;;;;;6.18;4.13;;;;;;;19.38;100.00;96100.59;5049251;28;20212;-70
2022/06/29 01:07:59;;;;;;;6.07;4.10;;;;;;;19.45;100.00;96097.81;5049563;28;20264;-70
2022/06/29 01:10:26;;;;;;;6.53;4.40;;;;;;;19.44;100.00;96105.03;5049887;28;20226;-70
2022/06/29 01:12:53;;;;;;;6.55;4.07;;;;;;;19.25;100.00;96100.84;5049032;28;20302;-70
2022/06/29 01:15:20;;;;;;;5.85;4.00;;;;;;;19.28;100.00;96102.25;5050018;28;20205;-70
2022/06/29 01:17:48;;;;;;;7.53;4.18;;;;;;;19.44;100.00;96101.56;5049520;28;20206;-70
2022/06/29 01:20:15;;;;;;;6.07;4.20;;;;;;;19.33;100.00;96110.38;5049498;28;20235;-69
2022/06/29 01:22:43;;;;;;;6.93;4.20;;;;;;;19.28;100.00;96099.56;5049423;28;20205;-69
2022/06/29 01:25:10;;;;;;;6.60;4.43;;;;;;;19.03;100.00;96104.31;5049421;28;20653;-70
2022/06/29 01:27:36;;;;;;;6.90;4.60;;;;;;;18.84;100.00;96105.47;5049254;28;20197;-69
2022/06/29 01:30:06;;;;;;;5.38;3.85;;;;;;;18.98;100.00;96105.00;5049625;28;20584;-70
2022/06/29 01:32:32;;;;;;;7.43;4.38;;;;;;;18.99;100.00;96111.16;5049484;28;20197;-69
2022/06/29 01:34:59;;;;;;;5.57;3.83;;;;;;;18.92;100.00;96099.78;5049243;28;20665;-70
2022/06/29 01:37:25;;;;;;;6.15;3.90;;;;;;;18.91;100.00;96092.81;5049407;28;20208;-70
2022/06/29 01:39:53;;;;;;;6.40;4.15;;;;;;;18.96;100.00;96099.09;5049158;28;20228;-70
2022/06/29 01:42:20;;;;;;;6.47;4.05;;;;;;;18.95;100.00;96093.97;5048801;28;20209;-70
2022/06/29 01:44:46;;;;;;;5.53;3.92;;;;;;;18.88;100.00;96093.28;5048517;28;20212;-69
2022/06/29 01:47:13;;;;;;;4.57;3.60;;;;;;;18.79;100.00;96102.69;5048930;28;20713;-70
2022/06/29 01:49:39;;;;;;;7.88;3.90;;;;;;;18.88;100.00;96095.94;5048648;28;20236;-70
2022/06/29 01:52:06;;;;;;;5.18;3.42;;;;;;;18.89;100.00;96089.56;5048734;28;20204;-69
2022/06/29 01:54:33;;;;;;;5.15;3.92;;;;;;;18.69;100.00;96072.25;5048622;28;20201;-69
2022/06/29 01:57:01;;;;;;;7.68;4.43;;;;;;;18.57;100.00;96071.41;5049376;28;20201;-69
2022/06/29 01:59:27;;;;;;;5.57;4.35;;;;;;;18.44;100.00;96068.94;5048175;28;20240;-70
2022/06/29 02:01:54;;;;;;;8.45;4.70;;;;;;;18.63;100.00;96073.16;5048944;28;20295;-70
2022/06/29 02:04:21;;;;;;;10.65;3.92;;;;;;;18.71;100.00;96073.66;5046751;28;20660;-70
2022/06/29 02:06:47;;;;;;;6.07;4.22;;;;;;;18.45;100.00;96074.06;5048752;28;20517;-70
2022/06/29 02:09:14;;;;;;;5.15;3.78;;;;;;;18.59;100.00;96072.81;5048817;28;20228;-69
2022/06/29 02:11:41;;;;;;;8.00;4.75;;;;;;;18.56;100.00;96061.78;5048054;28;20209;-69
2022/06/29 02:14:09;;;;;;;7.97;4.60;;;;;;;18.68;100.00;96057.28;5048575;28;20201;-70
2022/06/29 02:16:35;;;;;;;9.07;4.85;;;;;;;18.48;100.00;96054.09;5048492;28;20205;-70
2022/06/29 02:19:02;;;;;;;6.53;4.40;;;;;;;18.46;100.00;96059.69;5048410;28;20235;-70
2022/06/29 02:21:28;;;;;;;6.68;4.25;;;;;;;18.31;100.00;96058.50;5048889;28;20296;-70
2022/06/29 02:23:55;;;;;;;6.15;4.32;;;;;;;18.29;100.00;96057.09;5048463;28;20201;-70
2022/06/29 02:26:22;;;;;;;6.20;4.43;;;;;;;18.35;100.00;96052.47;5048584;28;20280;-70
2022/06/29 02:28:48;;;;;;;6.90;4.65;;;;;;;18.30;100.00;96067.53;5048469;28;20225;-70
2022/06/29 02:36:44;;;;;;;11.70;4.70;;;;;;;18.46;100.00;96061.53;5048544;28;20220;-70
2022/06/29 02:39:11;;;;;;;10.63;4.97;;;;;;;18.43;100.00;96053.97;5048243;28;20693;-75
2022/06/29 02:41:37;;;;;;;10.40;5.22;;;;;;;18.43;100.00;96056.66;5048433;28;20197;-71
2022/06/29 02:44:04;;;;;;;10.75;5.30;;;;;;;18.47;100.00;96053.31;5047845;28;20220;-71
2022/06/29 02:46:33;;;;;;;8.38;5.47;;;;;;;18.56;100.00;96051.13;5048388;28;20205;-71
2022/06/29 02:48:59;;;;;;;7.60;5.18;;;;;;;18.59;100.00;96059.47;5048179;28;20735;-70
2022/06/29 02:51:26;;;;;;;9.98;5.68;;;;;;;18.64;100.00;96054.25;5048411;28;20291;-71
2022/06/29 02:53:52;;;;;;;8.23;5.00;;;;;;;18.64;100.00;96048.91;5047841;28;20201;-71
2022/06/29 02:56:19;;;;;;;9.40;5.20;;;;;;;18.52;100.00;96049.94;5048307;28;20205;-71
2022/06/29 02:58:45;;;;;;;6.93;4.55;;;;;;;18.69;100.00;96051.69;5047957;28;20224;-71
2022/06/29 03:01:12;;;;;;;6.88;5.03;;;;;;;18.64;100.00;96056.91;5048442;28;20195;-71
2022/06/29 03:03:40;;;;;;;7.22;4.95;;;;;;;18.95;100.00;96056.56;5046902;28;20202;-70
2022/06/29 03:06:06;;;;;;;10.02;5.03;;;;;;;18.75;100.00;96053.47;5048627;28;20197;-71
2022/06/29 03:08:33;;;;;;;7.78;4.70;;;;;;;18.82;100.00;96048.00;5048019;28;20708;-70
2022/06/29 03:10:59;;;;;;;7.25;5.03;;;;;;;18.74;100.00;96038.47;5048207;28;20197;-71
2022/06/29 03:13:26;;;;;;;9.25;4.93;;;;;;;18.90;100.00;96031.63;5047700;28;20209;-71
2022/06/29 03:15:52;;;;;;;8.73;4.95;;;;;;;18.94;100.00;96026.41;5047820;28;20201;-71
2022/06/29 03:18:19;;;;;;;10.98;5.53;;;;;;;18.83;100.00;96021.06;5048085;28;20267;-71
2022/06/29 03:23:14;;;;;;;9.60;5.68;;;;;;;19.03;100.00;96008.97;5029458;28;20248;-70
2022/06/29 03:25:41;;;;;;;10.65;5.15;;;;;;;18.97;100.00;96011.78;5031024;28;20229;-67
2022/06/29 03:28:08;;;;;;;6.63;5.13;;;;;;;18.98;100.00;96014.19;5032070;28;20557;-67
2022/06/29 03:30:34;;;;;;;7.03;5.00;;;;;;;19.02;100.00;96017.22;5030113;28;20217;-68
2022/06/29 03:33:01;;;;;;;7.93;5.10;;;;;;;19.01;100.00;96026.28;5012389;28;20206;-67
2022/06/29 03:35:27;;;;;;;10.65;5.90;;;;;;;18.84;100.00;96038.72;5012402;28;20206;-68
2022/06/29 03:37:54;;;;;;;6.55;4.63;;;;;;;18.87;100.00;96024.88;5012248;28;20206;-67
2022/06/29 03:40:22;;;;;;;14.13;6.07;;;;;;;19.00;100.00;96020.13;5011981;28;20218;-69
2022/06/29 03:42:48;;;;;;;13.45;5.40;;;;;;;18.91;100.00;96020.69;5012124;28;20203;-69
2022/06/29 03:45:15;;;;;;;6.97;5.07;;;;;;;18.99;100.00;96026.50;5014956;28;20195;-68
2022/06/29 03:47:41;;;;;;;10.02;5.32;;;;;;;19.02;100.00;96026.03;5013496;28;20210;-67
2022/06/29 03:50:10;;;;;;;7.22;5.43;;;;;;;19.16;100.00;96021.31;5012181;28;20242;-68
2022/06/29 03:52:36;;;;;;;15.90;7.75;;;;;;;19.04;100.00;96036.47;5012004;28;20206;-68
2022/06/29 03:55:03;;;;;;;11.50;6.20;;;;;;;18.90;100.00;96039.63;5011967;28;20217;-68
2022/06/29 03:57:31;;;;;;;9.90;6.22;;;;;;;19.21;100.00;96046.25;5012301;28;20222;-68
2022/06/29 03:59:58;;;;;;;10.15;6.80;;;;;;;19.17;100.00;96057.63;5011754;28;20601;-68
2022/06/29 04:02:25;;;;;;;10.88;6.85;;;;;;;19.08;100.00;96067.06;5011556;28;20229;-68
2022/06/29 04:04:51;;;;;;;10.52;7.00;;;;;;;19.05;100.00;96059.47;5010805;28;20642;-68
2022/06/29 04:07:18;;;;;;;13.10;7.03;;;;;;;18.90;100.00;96075.16;5011699;28;20210;-68
2022/06/29 04:09:44;;;;;;;12.38;6.47;;;;;;;19.11;100.00;96075.41;5019671;28;20647;-68
2022/06/29 04:12:11;;;;;;;9.93;6.72;;;;;;;19.19;100.00;96074.25;5011874;28;20582;-68
2022/06/29 04:14:39;;;;;;;11.18;7.13;;;;;;;19.43;100.00;96070.53;5011604;28;20225;-68
2022/06/29 04:17:06;;;;;;;12.70;7.47;;;;;;;19.22;100.00;96074.59;5011713;28;20277;-69
2022/06/29 04:19:32;;;;;;;11.07;7.13;;;;;;;19.36;100.00;96075.16;5011470;28;20222;-69
2022/06/29 04:21:59;;;;;;;12.23;7.32;;;;;;;19.43;100.00;96075.88;5011392;28;20234;-69
2022/06/29 04:24:25;;;;;;;15.95;8.57;;;;;;;19.25;100.00;96078.69;5011443;28;20213;-69
2022/06/29 04:26:52;;;;;;;13.82;8.15;;;;;;;18.96;100.00;96069.72;5011776;28;20198;-67
2022/06/29 04:29:18;;;;;;;13.95;8.77;;;;;;;19.02;100.00;96084.00;5011642;28;20206;-69
2022/06/29 04:31:46;;;;;;;13.75;8.13;;;;;;;19.20;100.00;96076.69;5011543;28;20233;-70
2022/06/29 04:34:12;;;;;;;15.30;8.88;;;;;;;19.15;100.00;96081.91;5010590;28;20206;-69
2022/06/29 04:36:39;;;;;;;13.23;8.85;;;;;;;19.32;100.00;96079.34;5011315;28;20206;-70
2022/06/29 04:39:05;;;;;;;14.25;8.27;;;;;;;19.39;100.00;96075.50;5011472;28;20595;-68
2022/06/29 04:41:32;;;;;;;15.38;8.35;;;;;;;19.43;100.00;96070.53;5011019;28;20617;-68
2022/06/29 04:43:58;;;;;;;13.20;8.07;;;;;;;19.45;100.00;96069.22;5010909;28;20203;-68
2022/06/29 04:46:25;;;;;;;16.52;8.65;;;;;;;19.26;100.00;96056.25;5010960;28;20213;-68
2022/06/29 04:48:56;;;;;;;13.35;7.40;;;;;;;19.14;100.00;96050.09;5018923;28;20203;-68
2022/06/29 04:51:24;;;;;;;14.65;7.90;;;;;;;19.00;100.00;96054.03;5011468;28;20233;-69
2022/06/29 04:53:54;;;;;;;22.85;14.60;;;;;;;18.80;100.00;96064.25;5011034;28;20540;-68
2022/06/29 04:56:21;;;;;;;16.27;9.35;;;;;;;18.91;100.00;96050.06;5011047;28;20573;-68
2022/06/29 04:58:48;;;;;;;13.10;8.65;;;;;;;18.80;100.00;96058.91;5011111;28;20209;-68
2022/06/29 05:01:14;;;;;;;22.08;9.45;;;;;;;18.83;100.00;96045.09;5010920;28;20222;-68
2022/06/29 05:03:41;;;;;;;13.15;8.38;;;;;;;18.92;100.00;96049.03;5009729;28;20206;-70
2022/06/29 05:06:09;;;;;;;17.92;10.40;;;;;;;18.91;100.00;96052.75;5011138;28;20198;-67
2022/06/29 05:08:35;;;;;;;19.38;9.45;;;;;;;18.94;100.00;96054.97;5011011;28;20222;-68
2022/06/29 05:11:02;;;;;;;15.30;9.85;;;;;;;18.88;100.00;96052.44;5010838;28;20226;-68
2022/06/29 05:13:29;;;;;;;18.48;10.20;;;;;;;18.97;100.00;96059.84;5010376;28;20685;-68
2022/06/29 05:15:55;;;;;;;18.75;10.93;;;;;;;19.02;100.00;96065.31;5010964;28;20194;-70
2022/06/29 05:18:21;;;;;;;20.92;11.00;;;;;;;19.06;100.00;96067.28;5010603;28;20692;-68
2022/06/29 05:20:48;;;;;;;21.58;11.13;;;;;;;19.17;100.00;96076.34;5010578;28;20227;-68
2022/06/29 05:23:16;;;;;;;22.52;12.13;;;;;;;19.36;100.00;96067.97;5012429;28;20210;-67
2022/06/29 05:25:43;;;;;;;24.75;14.25;;;;;;;19.32;100.00;96072.16;5010468;28;20214;-68
2022/06/29 05:28:11;;;;;;;24.33;13.68;;;;;;;19.44;100.00;96072.16;5010731;28;20199;-68
2022/06/29 05:30:38;;;;;;;31.05;15.05;;;;;;;19.52;100.00;96074.44;5010026;28;20219;-67
2022/06/29 05:33:05;;;;;;;30.67;16.17;;;;;;;19.57;100.00;96072.69;5010431;28;20199;-67
2022/06/29 05:35:33;;;;;;;30.33;16.88;;;;;;;19.68;100.00;96075.34;5010521;28;20206;-67
2022/06/29 05:38:00;;;;;;;30.95;16.42;;;;;;;19.74;100.00;96077.06;5010792;28;20202;-70
2022/06/29 05:40:28;;;;;;;27.23;15.40;;;;;;;19.89;100.00;96077.34;5020732;28;20233;-69
2022/06/29 05:42:54;;;;;;;26.85;15.68;;;;;;;19.83;100.00;96075.66;5010263;28;20199;-69
2022/06/29 05:45:21;;;;;;;27.17;16.08;;;;;;;19.95;100.00;96081.00;5011198;28;20198;-68
2022/06/29 05:47:47;;;;;;;28.75;16.20;;;;;;;19.89;100.00;96082.69;5009964;28;20206;-69
2022/06/29 05:50:14;;;;;;;24.25;14.65;;;;;;;19.99;100.00;96084.81;5010784;28;20560;-70
2022/06/29 05:52:41;;;;;;;27.92;15.30;;;;;;;20.02;100.00;96092.34;5010173;28;20612;-69
2022/06/29 05:55:08;;;;;;;26.77;15.25;;;;;;;20.04;100.00;96096.41;5010489;28;20195;-68
2022/06/29 05:57:36;;;;;;;29.40;16.17;;;;;;;19.95;100.00;96089.81;5009921;28;20203;-68
2022/06/29 06:00:05;;;;;;;30.30;16.40;;;;;;;19.90;100.00;96086.19;5009779;28;20235;-67
2022/06/29 06:02:32;;;;;;;28.73;15.88;;;;;;;19.70;100.00;96081.28;5009743;28;20202;-67
2022/06/29 06:04:58;;;;;;;28.08;15.15;;;;;;;19.68;100.00;96080.69;5013097;28;20216;-70
2022/06/29 06:07:25;;;;;;;23.73;14.07;;;;;;;19.89;100.00;96082.69;5013378;28;20552;-67
2022/06/29 06:09:51;;;;;;;26.27;14.82;;;;;;;19.94;100.00;96084.72;5009627;28;20225;-69
2022/06/29 06:12:18;;;;;;;28.75;15.48;;;;;;;20.07;100.00;96085.22;5009449;28;20202;-70
2022/06/29 06:14:45;;;;;;;35.85;15.85;;;;;;;20.26;100.00;96081.28;5009811;28;20202;-69
2022/06/29 06:17:12;;;;;;;28.92;15.50;;;;;;;20.23;100.00;96076.44;5009886;28;20198;-69
2022/06/29 06:19:38;;;;;;;25.63;14.27;;;;;;;20.03;100.00;96083.28;5009643;28;20210;-68
2022/06/29 06:22:05;;;;;;;22.90;13.40;;;;;;;20.12;100.00;96088.00;5013228;28;20229;-70
2022/06/29 06:24:32;;;;;;;30.80;15.07;;;;;;;20.22;100.00;96080.97;5016081;28;20209;-69
2022/06/29 06:26:58;;;;;;;28.73;14.55;;;;;;;19.90;100.00;96081.66;5016710;28;20201;-70
2022/06/29 06:29:25;;;;;;;24.80;13.63;;;;;;;19.99;100.00;96085.59;5017221;28;20198;-70
2022/06/29 06:31:52;;;;;;;21.17;11.77;;;;;;;20.17;100.00;96098.00;5009757;28;20222;-69
2022/06/29 06:34:19;;;;;;;20.42;10.40;;;;;;;20.18;100.00;96099.63;5009439;28;20249;-69
2022/06/29 06:36:45;;;;;;;16.88;10.15;;;;;;;20.18;100.00;96097.75;5009045;28;20226;-70
2022/06/29 06:39:12;;;;;;;16.63;10.23;;;;;;;20.21;100.00;96098.09;5009399;28;20727;-69
2022/06/29 06:41:37;;;;;;;16.55;10.23;;;;;;;20.20;100.00;96107.16;5009097;28;20230;-68
2022/06/29 06:44:04;;;;;;;17.73;10.00;;;;;;;20.26;100.00;96105.38;5014077;28;20217;-69
2022/06/29 06:46:33;;;;;;;18.60;10.77;;;;;;;20.11;100.00;96099.78;5011941;28;20202;-69
2022/06/29 06:49:01;;;;;;;17.48;9.82;;;;;;;20.27;100.00;96097.09;5009322;28;20289;-69
2022/06/29 06:51:28;;;;;;;18.80;10.35;;;;;;;19.84;100.00;96093.28;5009216;28;20222;-69
2022/06/29 06:53:54;;;;;;;16.05;10.02;;;;;;;19.93;100.00;96099.91;5008883;28;20206;-68
2022/06/29 06:56:21;;;;;;;17.95;10.57;;;;;;;20.12;100.00;96085.31;5013149;28;20203;-69
2022/06/29 06:58:48;;;;;;;18.58;10.52;;;;;;;20.10;100.00;96098.13;5013490;28;20564;-68
2022/06/29 07:01:14;;;;;;;15.73;9.88;;;;;;;20.17;100.00;96101.47;5013042;28;20720;-69
2022/06/29 07:03:42;;;;;;;18.45;10.82;;;;;;;20.11;100.00;96110.47;5012019;28;20324;-69
2022/06/29 07:06:11;;;;;;;18.60;10.48;;;;;;;19.93;100.00;96110.63;5013269;28;20198;-69
2022/06/29 07:08:39;;;;;;;15.45;9.05;;;;;;;20.09;100.00;96109.09;5012877;28;20206;-68
2022/06/29 07:11:07;;;;;;;16.98;10.10;;;;;;;20.34;100.00;96113.03;5013216;28;20211;-69
2022/06/29 07:13:34;;;;;;;18.25;9.02;;;;;;;20.46;100.00;96111.91;5012671;28;20208;-68
2022/06/29 07:16:03;;;;;;;19.17;10.40;;;;;;;19.99;100.00;96115.03;5012896;28;20202;-69
2022/06/29 07:18:30;;;;;;;20.20;10.50;;;;;;;19.81;100.00;96106.34;5012988;28;20289;-68
2022/06/29 07:20:56;;;;;;;15.98;9.18;;;;;;;19.70;100.00;96104.50;5012624;28;20218;-68
2022/06/29 07:23:24;;;;;;;15.38;9.70;;;;;;;19.78;100.00;96104.13;5012573;28;20210;-68
2022/06/29 07:25:51;;;;;;;18.30;9.90;;;;;;;19.62;100.00;96097.66;5012701;28;20689;-68
2022/06/29 07:28:17;;;;;;;15.23;9.57;;;;;;;19.74;100.00;96101.13;5012297;28;20198;-68
2022/06/29 07:30:44;;;;;;;19.40;10.57;;;;;;;19.91;100.00;96099.38;5012598;28;20222;-68
2022/06/29 07:33:10;;;;;;;15.50;9.35;;;;;;;20.11;100.00;96115.00;5017625;28;20214;-69
2022/06/29 07:35:37;;;;;;;18.05;10.18;;;;;;;20.41;100.00;96109.16;5012448;28;20198;-69
2022/06/29 07:38:03;;;;;;;18.70;10.75;;;;;;;20.43;100.00;96112.41;5012564;28;20210;-68
2022/06/29 07:40:31;;;;;;;18.50;10.35;;;;;;;20.27;100.00;96107.81;5012579;28;20230;-68
2022/06/29 07:42:58;;;;;;;18.85;10.45;;;;;;;20.17;100.00;96109.50;5012314;28;20207;-69
2022/06/29 07:45:24;;;;;;;22.13;11.55;;;;;;;20.01;100.00;96099.56;5012561;28;20213;-69
2022/06/29 07:47:52;;;;;;;21.17;11.32;;;;;;;19.91;100.00;96094.00;5012199;28;20206;-69
2022/06/29 07:50:19;;;;;;;21.35;11.70;;;;;;;20.11;100.00;96097.09;5016591;28;20227;-69
2022/06/29 07:52:45;;;;;;;19.05;11.68;;;;;;;20.30;100.00;96101.19;5012082;28;20217;-69
2022/06/29 07:55:12;;;;;;;19.17;10.75;;;;;;;20.49;100.00;96092.72;5012220;28;20202;-69
2022/06/29 07:57:43;;;;;;;19.88;11.18;;;;;;;20.37;100.00;96102.66;5012246;28;20202;-70
2022/06/29 08:00:11;;;;;;;17.90;11.02;;;;;;;20.54;100.00;96091.97;5018956;28;20225;-70
2022/06/29 08:02:37;;;;;;;21.95;11.40;;;;;;;20.69;100.00;96094.94;5012625;28;20610;-70
2022/06/29 08:05:04;;;;;;;19.27;10.60;;;;;;;21.06;100.00;96086.19;5011093;28;20202;-70
2022/06/29 08:07:31;;;;;;;21.17;10.93;;;;;;;20.80;100.00;96096.72;5019269;28;20216;-69
2022/06/29 08:09:57;;;;;;;16.70;10.13;;;;;;;21.18;100.00;96089.56;5010593;28;20218;-69
2022/06/29 08:12:24;;;;;;;19.25;10.57;;;;;;;21.35;99.95;96096.53;5011109;28;20203;-69
2022/06/29 08:14:51;;;;;;;21.67;10.77;;;;;;;21.37;99.30;96086.34;5011655;28;20569;-69
2022/06/29 08:17:18;;;;;;;16.70;9.77;;;;;;;20.93;99.95;96092.69;5011662;28;20198;-69
2022/06/29 08:19:45;;;;;;;18.95;11.18;;;;;;;20.94;100.00;96088.94;5011945;28;20214;-69
2022/06/29 08:22:11;;;;;;;17.83;10.80;;;;;;;20.92;100.00;96087.56;5011296;28;20226;-69
2022/06/29 08:24:38;;;;;;;18.90;11.18;;;;;;;20.78;100.00;96088.16;5013180;28;20222;-69
2022/06/29 08:27:05;;;;;;;19.45;11.52;;;;;;;20.91;99.39;96083.25;5011648;28;20202;-69
2022/06/29 08:29:31;;;;;;;18.50;10.90;;;;;;;20.88;99.05;96089.91;5011884;28;20226;-69
2022/06/29 08:31:59;;;;;;;19.58;10.75;;;;;;;20.89;99.78;96086.19;5011167;28;20233;-70
2022/06/29 08:34:26;;;;;;;19.20;11.13;;;;;;;20.78;100.00;96082.78;5011260;28;20202;-69
2022/06/29 08:36:53;;;;;;;25.02;10.32;;;;;;;21.07;99.54;96074.41;5011392;28;20209;-69
2022/06/29 08:39:20;;;;;;;18.55;11.00;;;;;;;20.95;99.78;96079.84;5011337;28;20592;-69
2022/06/29 08:41:48;;;;;;;18.40;10.52;;;;;;;21.29;99.02;96086.00;5011174;28;20321;-69
2022/06/29 08:44:14;;;;;;;20.92;11.35;;;;;;;21.16;98.00;96086.34;5011001;28;20195;-69
2022/06/29 08:46:41;;;;;;;24.05;11.75;;;;;;;21.12;98.06;96080.66;5011741;28;20209;-69
2022/06/29 08:49:09;;;;;;;20.40;11.25;;;;;;;21.42;96.77;96086.44;5011289;28;20219;-69
2022/06/29 08:51:35;;;;;;;22.90;10.75;;;;;;;21.10;99.48;96079.28;5018697;28;20225;-69
2022/06/29 08:54:05;;;;;;;23.45;11.48;;;;;;;21.25;98.38;96074.94;5015324;28;20203;-69
2022/06/29 08:56:32;;;;;;;21.23;10.73;;;;;;;21.16;96.61;96071.06;5010969;28;20205;-69
2022/06/29 08:59:00;;;;;;;19.48;11.38;;;;;;;21.31;95.70;96071.28;5011000;28;20207;-69
2022/06/29 09:01:28;;;;;;;19.95;11.20;;;;;;;21.54;95.02;96076.47;5010707;28;20264;-70
2022/06/29 09:03:55;;;;;;;18.60;10.55;;;;;;;21.39;95.06;96073.53;5009797;28;20685;-69
2022/06/29 09:06:23;;;;;;;20.90;10.82;;;;;;;21.54;95.66;96079.94;5010721;28;20202;-68
2022/06/29 09:08:50;;;;;;;20.48;11.27;;;;;;;21.58;93.86;96074.91;5010812;28;20199;-68
2022/06/29 09:11:25;;;;;;;17.55;10.35;;;;;;;22.00;92.64;96075.97;5010714;28;20297;-69
2022/06/29 09:14:11;;;;;;;17.63;9.52;;;;;;;22.26;93.43;96067.94;5017599;28;20209;-69
2022/06/29 09:16:58;;;;;;;15.27;9.10;;;;;;;22.07;90.69;96082.72;5012023;28;20771;-69
2022/06/29 09:19:28;;;;;;;17.25;10.07;;;;;;;22.16;91.44;96083.91;5013920;28;20207;-70
2022/06/29 09:21:58;;;;;;;20.65;9.23;;;;;;;22.35;91.33;96078.00;5020711;28;20705;-69
2022/06/29 09:24:28;;;;;;;16.58;9.38;;;;;;;22.29;90.86;96079.00;5018508;28;20191;-70
2022/06/29 09:26:55;;;;;;;16.33;8.50;;;;;;;22.27;91.79;96080.31;5010610;28;20205;-70
2022/06/29 09:29:27;;;;;;;15.40;8.32;;;;;;;22.28;87.46;96072.00;5010925;28;20203;-70
2022/06/29 09:32:12;;;;;;;14.00;8.27;;;;;;;22.66;87.63;96079.06;5010127;28;20222;-69
2022/06/29 09:34:41;;;;;;;15.57;8.98;;;;;;;22.36;88.00;96089.53;5011637;28;20732;-69
2022/06/29 09:37:12;;;;;;;14.85;9.23;;;;;;;22.45;88.14;96085.34;5015842;28;20199;-70
2022/06/29 09:39:40;;;;;;;15.10;8.60;;;;;;;22.58;90.33;96091.13;5017553;28;20210;-70
2022/06/29 09:42:09;;;;;;;16.85;8.50;;;;;;;22.79;86.59;96095.59;5010021;28;20572;-70
2022/06/29 09:44:35;;;;;;;17.92;8.50;;;;;;;22.71;87.82;96096.88;5009906;28;20199;-70
2022/06/29 09:47:05;;;;;;;19.58;8.73;;;;;;;23.03;87.48;96096.91;5009980;28;20214;-69
2022/06/29 09:49:33;;;;;;;16.88;8.55;;;;;;;23.00;91.49;96086.66;5011580;28;20234;-70
2022/06/29 09:52:01;;;;;;;16.80;8.80;;;;;;;23.10;89.83;96095.59;5009802;28;20230;-68
2022/06/29 09:54:32;;;;;;;12.55;7.35;;;;;;;23.23;87.78;96097.03;5009749;28;20735;-68
2022/06/29 09:57:00;;;;;;;15.95;7.95;;;;;;;23.25;86.92;96094.91;5010250;28;20206;-68
2022/06/29 10:05:00;;;;;;;15.90;7.18;;;;;;;23.49;82.44;96087.00;5008282;28;20677;-70
2022/06/29 10:07:28;;;;;;;9.85;6.55;;;;;;;23.79;81.93;96087.22;5011749;28;20209;-70
2022/06/29 10:09:57;;;;;;;11.63;7.00;;;;;;;23.93;78.31;96078.38;5017230;28;20201;-70
2022/06/29 10:15:29;;;;;;;10.30;6.25;;;;;;;24.05;78.31;96086.22;5015849;28;20202;-69
2022/06/29 10:18:04;;;;;;;12.48;5.70;;;;;;;24.17;81.08;96082.25;5009435;28;20205;-69
2022/06/29 10:20:42;;;;;;;10.27;6.00;;;;;;;24.56;79.75;96088.03;5009290;28;20236;-69
2022/06/29 10:23:08;;;;;;;10.75;5.63;;;;;;;24.24;79.83;96090.06;5014406;28;20577;-69
2022/06/29 10:25:37;;;;;;;10.27;5.63;;;;;;;24.01;74.49;96095.91;5008861;28;20202;-68
2022/06/29 10:28:18;;;;;;;9.85;5.55;;;;;;;24.08;78.09;96093.78;5009417;28;20212;-69
2022/06/29 10:30:45;;;;;;;8.40;5.22;;;;;;;23.66;79.60;96090.34;5008783;28;20571;-68
2022/06/29 10:33:32;;;;;;;12.10;5.47;;;;;;;24.10;77.13;96081.66;5008378;28;20671;-68
2022/06/29 10:36:03;;;;;;;9.10;5.32;;;;;;;23.98;75.88;96075.72;5009141;28;20245;-68
2022/06/29 10:38:31;;;;;;;9.18;5.10;;;;;;;23.57;75.88;96073.03;5009119;28;20538;-68
2022/06/29 10:43:07;;;;;;;9.75;5.35;;;;;;;23.84;77.35;96078.31;5009038;28;20221;-68
2022/06/29 10:43:56;;;;;;;9.38;4.82;;;;;;;23.79;76.46;96071.06;5008089;28;20281;-69
2022/06/29 10:46:22;;;;;;;8.85;4.53;;;;;;;23.50;78.54;96069.78;5009451;28;20738;-68
2022/06/29 10:49:19;;;;;;;8.75;5.38;;;;;;;24.10;77.86;96072.78;5009314;28;21192;-69
2022/06/29 10:51:46;;;;;;;7.28;5.05;;;;;;;24.09;78.18;96071.97;5014076;28;20221;-68
2022/06/29 10:54:22;;;;;;;7.75;5.53;;;;;;;24.65;74.05;96063.75;5016969;28;20296;-69
2022/06/29 10:56:50;;;;;;;9.68;5.25;;;;;;;24.88;75.77;96063.25;5011026;28;20689;-68
2022/06/29 10:59:32;;;;;;;9.68;5.40;;;;;;;25.19;76.37;96060.28;5009447;28;20221;-70
2022/06/29 11:02:08;;;;;;;10.23;5.15;;;;;;;25.77;73.34;96050.75;5009501;28;20230;-70
2022/06/29 11:04:35;;;;;;;6.18;3.63;;;;;;;25.46;75.26;96054.59;5010731;28;20198;-70
2022/06/29 11:12:36;;;;;;;8.00;4.10;;;;;;;25.37;68.61;96048.13;4989779;28;20206;-70
2022/06/29 11:17:47;;;;;;;6.07;3.63;;;;;;;25.09;73.03;96045.19;5008742;28;20705;-70
2022/06/29 11:20:19;;;;;;;4.60;3.55;;;;;;;25.18;77.53;96045.19;5008869;28;20736;-70
2022/06/29 11:22:52;;;;;;;7.55;3.88;;;;;;;25.82;74.53;96042.63;5008351;28;20601;-70
2022/06/29 11:25:19;;;;;;;5.28;3.70;;;;;;;26.25;75.05;96042.69;5008743;28;20229;-70
2022/06/29 11:27:48;;;;;;;8.18;3.67;;;;;;;26.71;72.33;96040.25;5009086;28;20211;-70
2022/06/29 11:30:20;;;;;;;6.68;3.15;;;;;;;26.49;68.28;96037.16;5015175;28;20226;-70
2022/06/29 11:32:48;;;;;;;9.60;4.00;;;;;;;26.76;68.39;96025.88;5008161;28;20206;-68
2022/06/29 11:35:17;;;;;;;9.13;4.13;;;;;;;26.52;64.51;96024.97;5002816;28;20210;-69
2022/06/29 11:37:49;;;;;;;8.63;4.25;;;;;;;26.62;69.91;96025.72;4996935;28;20207;-69
2022/06/29 11:40:19;;;;;;;6.60;3.80;;;;;;;26.95;63.81;96024.09;5003792;28;20214;-69
2022/06/29 11:43:05;;;;;;;7.80;4.43;;;;;;;26.70;64.75;96022.41;5009508;28;20226;-68
2022/06/29 11:45:37;;;;;;;6.30;3.97;;;;;;;27.25;65.17;96021.94;5012530;28;20269;-68
2022/06/29 11:48:11;;;;;;;8.50;3.75;;;;;;;26.91;67.64;96017.63;5016928;28;20284;-69